Terminal Aerodrome Forecast
Issued by NWS Green Bay, WI

Home | Current Version | Previous Version | Graphics & Text | Print | Product List | Glossary On
Versions: 1 2 3 4 5 6 7 8 9 10 11 12 13 14 15 16 17 18 19 20 21 22 23 24 25 26 27 28 29 30 31 32
000
FTUS43 KGRB 252340 CCA
TAFGRB
TAF COR
KGRB 252340Z 2600/2624 30010KT P6SM SCT025 OVC035
      TEMPO 2600/2604 BKN025
     FM260600 30005KT P6SM SCT035
     FM261400 33006KT P6SM SCT030 BKN040
     FM262000 33006KT P6SM SCT050=

USA.gov is the U.S. government's official web portal to all federal, state and local government web resources and services.